sensor_id;sensor_type;location;lat;lon;timestamp;temperature;humidity
29721;DHT22;23665;51.044;3.748;2022-08-19T00:01:52;21.00;99.90
29721;DHT22;23665;51.044;3.748;2022-08-19T00:04:30;21.00;99.90
29721;DHT22;23665;51.044;3.748;2022-08-19T00:06:57;21.00;99.90
29721;DHT22;23665;51.044;3.748;2022-08-19T00:09:23;21.00;99.90
29721;DHT22;23665;51.044;3.748;2022-08-19T00:11:50;20.80;99.90
29721;DHT22;23665;51.044;3.748;2022-08-19T00:14:18;20.70;99.90
29721;DHT22;23665;51.044;3.748;2022-08-19T00:16:46;20.60;99.90
29721;DHT22;23665;51.044;3.748;2022-08-19T00:19:14;20.60;99.90
29721;DHT22;23665;51.044;3.748;2022-08-19T00:21:41;20.80;99.90
29721;DHT22;23665;51.044;3.748;2022-08-19T00:24:08;20.70;99.90
29721;DHT22;23665;51.044;3.748;2022-08-19T00:26:35;20.50;99.90
29721;DHT22;23665;51.044;3.748;2022-08-19T00:29:01;20.50;99.90
29721;DHT22;23665;51.044;3.748;2022-08-19T00:31:27;20.40;99.90
29721;DHT22;23665;51.044;3.748;2022-08-19T00:33:54;20.30;99.90
29721;DHT22;23665;51.044;3.748;2022-08-19T00:36:20;20.40;99.90
29721;DHT22;23665;51.044;3.748;2022-08-19T00:38:46;20.40;99.90
29721;DHT22;23665;51.044;3.748;2022-08-19T00:41:15;20.40;99.90
29721;DHT22;23665;51.044;3.748;2022-08-19T00:43:43;20.40;99.90
29721;DHT22;23665;51.044;3.748;2022-08-19T00:46:09;20.30;99.90
29721;DHT22;23665;51.044;3.748;2022-08-19T00:48:35;20.30;99.90
29721;DHT22;23665;51.044;3.748;2022-08-19T00:51:03;20.40;99.90
29721;DHT22;23665;51.044;3.748;2022-08-19T00:53:31;20.40;99.90
29721;DHT22;23665;51.044;3.748;2022-08-19T00:55:58;20.30;99.90
29721;DHT22;23665;51.044;3.748;2022-08-19T00:58:29;20.20;99.90
29721;DHT22;23665;51.044;3.748;2022-08-19T01:00:55;20.10;99.90
29721;DHT22;23665;51.044;3.748;2022-08-19T01:03:22;20.20;99.90
29721;DHT22;23665;51.044;3.748;2022-08-19T01:05:49;20.00;99.90
29721;DHT22;23665;51.044;3.748;2022-08-19T01:08:18;20.00;99.90
29721;DHT22;23665;51.044;3.748;2022-08-19T01:10:56;20.10;99.90
29721;DHT22;23665;51.044;3.748;2022-08-19T01:13:27;20.10;99.90
29721;DHT22;23665;51.044;3.748;2022-08-19T01:16:00;20.10;99.90
29721;DHT22;23665;51.044;3.748;2022-08-19T01:18:28;20.00;99.90
29721;DHT22;23665;51.044;3.748;2022-08-19T01:20:56;20.00;99.90
29721;DHT22;23665;51.044;3.748;2022-08-19T01:23:23;20.00;99.90
29721;DHT22;23665;51.044;3.748;2022-08-19T01:26:13;19.90;99.90
29721;DHT22;23665;51.044;3.748;2022-08-19T01:28:39;19.80;99.90
29721;DHT22;23665;51.044;3.748;2022-08-19T01:31:06;19.60;99.90
29721;DHT22;23665;51.044;3.748;2022-08-19T01:33:33;19.70;99.90
29721;DHT22;23665;51.044;3.748;2022-08-19T01:36:11;19.60;99.90
29721;DHT22;23665;51.044;3.748;2022-08-19T01:38:41;19.70;99.90
29721;DHT22;23665;51.044;3.748;2022-08-19T01:41:09;19.60;99.90
29721;DHT22;23665;51.044;3.748;2022-08-19T01:43:35;19.70;99.90
29721;DHT22;23665;51.044;3.748;2022-08-19T01:46:00;19.50;99.90
29721;DHT22;23665;51.044;3.748;2022-08-19T01:48:27;19.60;99.90
29721;DHT22;23665;51.044;3.748;2022-08-19T01:50:55;19.50;99.90
29721;DHT22;23665;51.044;3.748;2022-08-19T01:53:21;19.50;99.90
29721;DHT22;23665;51.044;3.748;2022-08-19T01:55:47;19.50;99.90
29721;DHT22;23665;51.044;3.748;2022-08-19T01:58:19;19.50;99.90
29721;DHT22;23665;51.044;3.748;2022-08-19T02:00:48;19.50;99.90
29721;DHT22;23665;51.044;3.748;2022-08-19T02:03:14;19.50;99.90
29721;DHT22;23665;51.044;3.748;2022-08-19T02:05:41;19.50;99.90
29721;DHT22;23665;51.044;3.748;2022-08-19T02:08:08;19.40;99.90
29721;DHT22;23665;51.044;3.748;2022-08-19T02:10:37;19.30;99.90
29721;DHT22;23665;51.044;3.748;2022-08-19T02:13:03;19.30;99.90
29721;DHT22;23665;51.044;3.748;2022-08-19T02:15:29;19.30;99.90
29721;DHT22;23665;51.044;3.748;2022-08-19T02:17:55;19.20;99.90
29721;DHT22;23665;51.044;3.748;2022-08-19T02:20:20;19.20;99.90
29721;DHT22;23665;51.044;3.748;2022-08-19T02:22:46;19.10;99.90
29721;DHT22;23665;51.044;3.748;2022-08-19T02:25:14;19.00;99.90
29721;DHT22;23665;51.044;3.748;2022-08-19T02:27:41;19.20;99.90
29721;DHT22;23665;51.044;3.748;2022-08-19T02:30:10;19.10;99.90
29721;DHT22;23665;51.044;3.748;2022-08-19T02:32:36;18.90;99.90
29721;DHT22;23665;51.044;3.748;2022-08-19T02:35:02;18.90;99.90
29721;DHT22;23665;51.044;3.748;2022-08-19T02:37:28;18.90;99.90
29721;DHT22;23665;51.044;3.748;2022-08-19T02:40:13;19.00;99.90
29721;DHT22;23665;51.044;3.748;2022-08-19T02:42:39;18.90;99.90
29721;DHT22;23665;51.044;3.748;2022-08-19T02:45:06;18.90;99.90
29721;DHT22;23665;51.044;3.748;2022-08-19T02:47:33;18.90;99.90
29721;DHT22;23665;51.044;3.748;2022-08-19T02:50:01;18.90;99.90
29721;DHT22;23665;51.044;3.748;2022-08-19T02:52:27;18.80;99.90
29721;DHT22;23665;51.044;3.748;2022-08-19T02:54:53;18.90;99.90
29721;DHT22;23665;51.044;3.748;2022-08-19T02:57:21;18.90;99.90
29721;DHT22;23665;51.044;3.748;2022-08-19T02:59:47;18.90;99.90
29721;DHT22;23665;51.044;3.748;2022-08-19T03:02:13;18.80;99.90
29721;DHT22;23665;51.044;3.748;2022-08-19T03:04:38;18.80;99.90
29721;DHT22;23665;51.044;3.748;2022-08-19T03:07:04;18.90;99.90
29721;DHT22;23665;51.044;3.748;2022-08-19T03:09:30;18.90;99.90
29721;DHT22;23665;51.044;3.748;2022-08-19T03:11:55;18.70;99.90
29721;DHT22;23665;51.044;3.748;2022-08-19T03:14:21;18.70;99.90
29721;DHT22;23665;51.044;3.748;2022-08-19T03:16:50;18.60;99.90
29721;DHT22;23665;51.044;3.748;2022-08-19T03:19:18;18.60;99.90
29721;DHT22;23665;51.044;3.748;2022-08-19T03:21:45;18.70;99.90
29721;DHT22;23665;51.044;3.748;2022-08-19T03:24:11;18.60;99.90
29721;DHT22;23665;51.044;3.748;2022-08-19T03:26:43;18.70;99.90
29721;DHT22;23665;51.044;3.748;2022-08-19T03:29:09;18.60;99.90
29721;DHT22;23665;51.044;3.748;2022-08-19T03:31:37;18.80;99.90
29721;DHT22;23665;51.044;3.748;2022-08-19T03:34:03;18.90;99.90
29721;DHT22;23665;51.044;3.748;2022-08-19T03:36:29;19.00;99.90
29721;DHT22;23665;51.044;3.748;2022-08-19T03:39:00;18.90;99.90
29721;DHT22;23665;51.044;3.748;2022-08-19T03:41:29;18.90;99.90
29721;DHT22;23665;51.044;3.748;2022-08-19T03:43:56;19.00;99.90
29721;DHT22;23665;51.044;3.748;2022-08-19T03:46:24;19.00;99.90
29721;DHT22;23665;51.044;3.748;2022-08-19T03:48:52;19.10;99.90
29721;DHT22;23665;51.044;3.748;2022-08-19T03:51:29;19.10;99.90
29721;DHT22;23665;51.044;3.748;2022-08-19T03:53:56;19.10;99.90
29721;DHT22;23665;51.044;3.748;2022-08-19T03:56:22;18.90;99.90
29721;DHT22;23665;51.044;3.748;2022-08-19T03:58:48;18.90;99.90
29721;DHT22;23665;51.044;3.748;2022-08-19T04:01:17;18.90;99.90
29721;DHT22;23665;51.044;3.748;2022-08-19T04:03:43;18.80;99.90
29721;DHT22;23665;51.044;3.748;2022-08-19T04:06:21;18.90;99.90
29721;DHT22;23665;51.044;3.748;2022-08-19T04:08:48;18.80;99.90
29721;DHT22;23665;51.044;3.748;2022-08-19T04:11:19;18.70;99.90
29721;DHT22;23665;51.044;3.748;2022-08-19T04:13:47;18.70;99.90
29721;DHT22;23665;51.044;3.748;2022-08-19T04:16:13;18.70;99.90
29721;DHT22;23665;51.044;3.748;2022-08-19T04:18:39;18.80;99.90
29721;DHT22;23665;51.044;3.748;2022-08-19T04:21:06;18.80;99.90
29721;DHT22;23665;51.044;3.748;2022-08-19T04:23:32;18.80;99.90
29721;DHT22;23665;51.044;3.748;2022-08-19T04:25:58;18.80;99.90
29721;DHT22;23665;51.044;3.748;2022-08-19T04:28:24;18.80;99.90
29721;DHT22;23665;51.044;3.748;2022-08-19T04:30:52;18.80;99.90
29721;DHT22;23665;51.044;3.748;2022-08-19T04:33:20;18.90;99.90
29721;DHT22;23665;51.044;3.748;2022-08-19T04:35:49;18.80;99.90
29721;DHT22;23665;51.044;3.748;2022-08-19T04:38:17;18.80;99.90
29721;DHT22;23665;51.044;3.748;2022-08-19T04:40:45;18.80;99.90
29721;DHT22;23665;51.044;3.748;2022-08-19T04:43:38;18.80;99.90
29721;DHT22;23665;51.044;3.748;2022-08-19T04:46:12;18.70;99.90
29721;DHT22;23665;51.044;3.748;2022-08-19T04:48:38;18.80;99.90
29721;DHT22;23665;51.044;3.748;2022-08-19T04:51:09;18.90;99.90
29721;DHT22;23665;51.044;3.748;2022-08-19T04:53:38;18.70;99.90
29721;DHT22;23665;51.044;3.748;2022-08-19T04:56:08;18.70;99.90
29721;DHT22;23665;51.044;3.748;2022-08-19T04:58:34;18.70;99.90
29721;DHT22;23665;51.044;3.748;2022-08-19T05:01:00;18.80;99.90
29721;DHT22;23665;51.044;3.748;2022-08-19T05:03:26;18.80;99.90
29721;DHT22;23665;51.044;3.748;2022-08-19T05:05:52;18.70;99.90
29721;DHT22;23665;51.044;3.748;2022-08-19T05:08:20;18.90;99.90
29721;DHT22;23665;51.044;3.748;2022-08-19T05:10:48;18.80;99.90
29721;DHT22;23665;51.044;3.748;2022-08-19T05:13:16;18.90;99.90
29721;DHT22;23665;51.044;3.748;2022-08-19T05:15:43;18.90;99.90
29721;DHT22;23665;51.044;3.748;2022-08-19T05:18:09;18.90;99.90
29721;DHT22;23665;51.044;3.748;2022-08-19T05:20:53;18.90;99.90
29721;DHT22;23665;51.044;3.748;2022-08-19T05:23:38;18.90;99.90
29721;DHT22;23665;51.044;3.748;2022-08-19T05:26:04;19.00;99.90
29721;DHT22;23665;51.044;3.748;2022-08-19T05:28:30;19.10;99.90
29721;DHT22;23665;51.044;3.748;2022-08-19T05:30:56;19.30;99.90
29721;DHT22;23665;51.044;3.748;2022-08-19T05:33:22;19.40;99.90
29721;DHT22;23665;51.044;3.748;2022-08-19T05:35:48;19.40;99.90
29721;DHT22;23665;51.044;3.748;2022-08-19T05:38:16;19.50;99.90
29721;DHT22;23665;51.044;3.748;2022-08-19T05:40:42;19.60;99.90
29721;DHT22;23665;51.044;3.748;2022-08-19T05:43:14;19.70;99.90
29721;DHT22;23665;51.044;3.748;2022-08-19T05:45:41;19.60;99.90
29721;DHT22;23665;51.044;3.748;2022-08-19T05:48:09;19.50;99.90
29721;DHT22;23665;51.044;3.748;2022-08-19T05:50:37;19.50;99.90
29721;DHT22;23665;51.044;3.748;2022-08-19T05:53:04;19.60;99.90
29721;DHT22;23665;51.044;3.748;2022-08-19T05:55:30;19.80;99.90
29721;DHT22;23665;51.044;3.748;2022-08-19T05:57:55;19.90;99.90
29721;DHT22;23665;51.044;3.748;2022-08-19T06:00:21;19.90;99.90
29721;DHT22;23665;51.044;3.748;2022-08-19T06:02:47;20.00;99.90
29721;DHT22;23665;51.044;3.748;2022-08-19T06:05:12;20.20;99.90
29721;DHT22;23665;51.044;3.748;2022-08-19T06:07:39;20.20;99.90
29721;DHT22;23665;51.044;3.748;2022-08-19T06:10:07;20.10;99.90
29721;DHT22;23665;51.044;3.748;2022-08-19T06:12:34;20.10;99.90
29721;DHT22;23665;51.044;3.748;2022-08-19T06:15:03;20.20;99.90
29721;DHT22;23665;51.044;3.748;2022-08-19T06:17:30;20.30;99.90
29721;DHT22;23665;51.044;3.748;2022-08-19T06:19:56;20.40;99.90
29721;DHT22;23665;51.044;3.748;2022-08-19T06:22:22;20.50;99.90
29721;DHT22;23665;51.044;3.748;2022-08-19T06:24:48;20.60;99.90
29721;DHT22;23665;51.044;3.748;2022-08-19T06:27:18;20.60;99.90
29721;DHT22;23665;51.044;3.748;2022-08-19T06:29:44;20.80;99.90
29721;DHT22;23665;51.044;3.748;2022-08-19T06:32:11;20.80;99.90
29721;DHT22;23665;51.044;3.748;2022-08-19T06:34:39;21.00;99.90
29721;DHT22;23665;51.044;3.748;2022-08-19T06:37:06;21.00;99.90
29721;DHT22;23665;51.044;3.748;2022-08-19T06:39:35;21.10;99.90
29721;DHT22;23665;51.044;3.748;2022-08-19T06:42:03;21.10;99.90
29721;DHT22;23665;51.044;3.748;2022-08-19T06:44:32;21.40;99.90
29721;DHT22;23665;51.044;3.748;2022-08-19T06:47:02;21.20;99.90
29721;DHT22;23665;51.044;3.748;2022-08-19T06:49:29;21.40;99.90
29721;DHT22;23665;51.044;3.748;2022-08-19T06:51:57;21.50;99.90
29721;DHT22;23665;51.044;3.748;2022-08-19T06:54:24;21.70;99.90
29721;DHT22;23665;51.044;3.748;2022-08-19T06:56:50;21.80;99.90
29721;DHT22;23665;51.044;3.748;2022-08-19T06:59:17;21.80;99.90
29721;DHT22;23665;51.044;3.748;2022-08-19T07:01:46;21.90;99.90
29721;DHT22;23665;51.044;3.748;2022-08-19T07:04:16;21.80;99.90
29721;DHT22;23665;51.044;3.748;2022-08-19T07:06:43;21.90;99.90
29721;DHT22;23665;51.044;3.748;2022-08-19T07:09:12;21.90;99.90
29721;DHT22;23665;51.044;3.748;2022-08-19T07:11:38;21.90;99.90
29721;DHT22;23665;51.044;3.748;2022-08-19T07:14:08;21.90;99.90
29721;DHT22;23665;51.044;3.748;2022-08-19T07:16:34;21.90;99.90
29721;DHT22;23665;51.044;3.748;2022-08-19T07:19:00;21.80;99.90
29721;DHT22;23665;51.044;3.748;2022-08-19T07:21:27;21.70;99.90
29721;DHT22;23665;51.044;3.748;2022-08-19T07:23:54;21.50;99.90
29721;DHT22;23665;51.044;3.748;2022-08-19T07:26:23;21.60;99.90
29721;DHT22;23665;51.044;3.748;2022-08-19T07:28:50;21.60;99.90
29721;DHT22;23665;51.044;3.748;2022-08-19T07:31:20;21.70;99.90
29721;DHT22;23665;51.044;3.748;2022-08-19T07:33:47;21.80;99.90
29721;DHT22;23665;51.044;3.748;2022-08-19T07:36:15;21.80;99.90
29721;DHT22;23665;51.044;3.748;2022-08-19T07:38:43;21.80;99.90
29721;DHT22;23665;51.044;3.748;2022-08-19T07:41:20;21.90;99.90
29721;DHT22;23665;51.044;3.748;2022-08-19T07:43:46;22.00;99.90
29721;DHT22;23665;51.044;3.748;2022-08-19T07:46:12;22.20;99.90
29721;DHT22;23665;51.044;3.748;2022-08-19T07:48:40;22.10;99.90
29721;DHT22;23665;51.044;3.748;2022-08-19T07:51:07;22.30;99.90
29721;DHT22;23665;51.044;3.748;2022-08-19T07:53:34;22.40;99.90
29721;DHT22;23665;51.044;3.748;2022-08-19T07:56:02;22.30;99.90
29721;DHT22;23665;51.044;3.748;2022-08-19T07:58:32;22.50;99.90
29721;DHT22;23665;51.044;3.748;2022-08-19T08:00:58;22.40;99.90
29721;DHT22;23665;51.044;3.748;2022-08-19T08:03:24;22.20;99.90
29721;DHT22;23665;51.044;3.748;2022-08-19T08:06:10;22.20;99.90
29721;DHT22;23665;51.044;3.748;2022-08-19T08:08:54;22.20;99.90
29721;DHT22;23665;51.044;3.748;2022-08-19T08:11:44;22.20;99.90
29721;DHT22;23665;51.044;3.748;2022-08-19T08:14:36;22.20;99.90
29721;DHT22;23665;51.044;3.748;2022-08-19T08:17:04;22.30;99.90
29721;DHT22;23665;51.044;3.748;2022-08-19T08:19:30;22.30;99.90
29721;DHT22;23665;51.044;3.748;2022-08-19T08:21:58;22.60;99.90
29721;DHT22;23665;51.044;3.748;2022-08-19T08:24:25;22.60;99.90
29721;DHT22;23665;51.044;3.748;2022-08-19T08:26:51;22.70;99.90
29721;DHT22;23665;51.044;3.748;2022-08-19T08:29:17;22.60;99.90
29721;DHT22;23665;51.044;3.748;2022-08-19T08:31:45;22.70;99.90
29721;DHT22;23665;51.044;3.748;2022-08-19T08:34:12;22.70;99.90
29721;DHT22;23665;51.044;3.748;2022-08-19T08:36:40;22.70;99.90
29721;DHT22;23665;51.044;3.748;2022-08-19T08:39:08;22.70;99.90
29721;DHT22;23665;51.044;3.748;2022-08-19T08:41:40;22.70;99.90
29721;DHT22;23665;51.044;3.748;2022-08-19T08:44:15;22.70;99.90
29721;DHT22;23665;51.044;3.748;2022-08-19T08:47:03;22.70;99.90
29721;DHT22;23665;51.044;3.748;2022-08-19T08:52:07;22.70;99.90
29721;DHT22;23665;51.044;3.748;2022-08-19T08:54:43;22.80;99.90
29721;DHT22;23665;51.044;3.748;2022-08-19T08:57:14;22.80;99.90
29721;DHT22;23665;51.044;3.748;2022-08-19T08:59:41;22.90;99.90
29721;DHT22;23665;51.044;3.748;2022-08-19T09:02:09;23.10;99.90
29721;DHT22;23665;51.044;3.748;2022-08-19T09:04:38;23.10;99.90
29721;DHT22;23665;51.044;3.748;2022-08-19T09:09:56;23.20;99.90
29721;DHT22;23665;51.044;3.748;2022-08-19T09:12:43;23.20;99.90
29721;DHT22;23665;51.044;3.748;2022-08-19T09:15:14;23.10;99.90
29721;DHT22;23665;51.044;3.748;2022-08-19T09:17:41;23.00;99.90
29721;DHT22;23665;51.044;3.748;2022-08-19T09:20:19;23.00;99.90
29721;DHT22;23665;51.044;3.748;2022-08-19T09:22:45;23.10;99.90
29721;DHT22;23665;51.044;3.748;2022-08-19T09:25:14;23.10;99.90
29721;DHT22;23665;51.044;3.748;2022-08-19T09:27:41;23.20;99.90
29721;DHT22;23665;51.044;3.748;2022-08-19T09:30:13;23.30;99.90
29721;DHT22;23665;51.044;3.748;2022-08-19T09:32:39;23.60;99.90
29721;DHT22;23665;51.044;3.748;2022-08-19T09:35:07;24.00;99.90
29721;DHT22;23665;51.044;3.748;2022-08-19T09:37:33;24.40;99.90
29721;DHT22;23665;51.044;3.748;2022-08-19T09:39:59;24.60;99.90
29721;DHT22;23665;51.044;3.748;2022-08-19T09:42:25;24.80;99.90
29721;DHT22;23665;51.044;3.748;2022-08-19T09:44:50;24.90;99.90
29721;DHT22;23665;51.044;3.748;2022-08-19T09:47:16;25.10;99.90
29721;DHT22;23665;51.044;3.748;2022-08-19T09:49:42;25.30;99.90
29721;DHT22;23665;51.044;3.748;2022-08-19T09:52:11;25.30;99.90
29721;DHT22;23665;51.044;3.748;2022-08-19T09:54:38;25.40;99.90
29721;DHT22;23665;51.044;3.748;2022-08-19T09:57:04;25.40;99.90
29721;DHT22;23665;51.044;3.748;2022-08-19T09:59:30;25.20;99.90
29721;DHT22;23665;51.044;3.748;2022-08-19T10:01:55;25.10;99.90
29721;DHT22;23665;51.044;3.748;2022-08-19T10:04:22;25.10;99.90
29721;DHT22;23665;51.044;3.748;2022-08-19T10:06:49;25.10;99.90
29721;DHT22;23665;51.044;3.748;2022-08-19T10:09:17;24.70;99.90
29721;DHT22;23665;51.044;3.748;2022-08-19T10:11:44;24.50;99.90
29721;DHT22;23665;51.044;3.748;2022-08-19T10:14:15;24.60;99.90
29721;DHT22;23665;51.044;3.748;2022-08-19T10:16:42;24.50;99.90
29721;DHT22;23665;51.044;3.748;2022-08-19T10:19:09;24.50;99.90
29721;DHT22;23665;51.044;3.748;2022-08-19T10:21:35;24.50;99.90
29721;DHT22;23665;51.044;3.748;2022-08-19T10:24:03;24.30;99.90
29721;DHT22;23665;51.044;3.748;2022-08-19T10:26:34;24.10;99.90
29721;DHT22;23665;51.044;3.748;2022-08-19T10:29:01;24.30;99.90
29721;DHT22;23665;51.044;3.748;2022-08-19T10:31:29;24.30;99.90
29721;DHT22;23665;51.044;3.748;2022-08-19T10:33:56;24.50;99.90
29721;DHT22;23665;51.044;3.748;2022-08-19T10:36:29;24.70;99.90
29721;DHT22;23665;51.044;3.748;2022-08-19T10:38:58;24.70;99.90
29721;DHT22;23665;51.044;3.748;2022-08-19T10:41:26;25.10;99.90
29721;DHT22;23665;51.044;3.748;2022-08-19T10:43:55;25.10;99.90
29721;DHT22;23665;51.044;3.748;2022-08-19T10:46:22;25.10;99.90
29721;DHT22;23665;51.044;3.748;2022-08-19T10:48:49;25.00;99.90
29721;DHT22;23665;51.044;3.748;2022-08-19T10:51:15;25.00;99.90
29721;DHT22;23665;51.044;3.748;2022-08-19T10:53:59;25.00;99.90
29721;DHT22;23665;51.044;3.748;2022-08-19T10:56:26;25.10;99.90
29721;DHT22;23665;51.044;3.748;2022-08-19T10:59:10;25.30;99.90
29721;DHT22;23665;51.044;3.748;2022-08-19T11:01:38;25.20;99.90
29721;DHT22;23665;51.044;3.748;2022-08-19T11:04:04;25.30;99.90
29721;DHT22;23665;51.044;3.748;2022-08-19T11:06:33;25.50;99.90
29721;DHT22;23665;51.044;3.748;2022-08-19T11:08:59;25.40;99.90
29721;DHT22;23665;51.044;3.748;2022-08-19T11:11:26;25.20;99.90
29721;DHT22;23665;51.044;3.748;2022-08-19T11:13:53;25.30;99.90
29721;DHT22;23665;51.044;3.748;2022-08-19T11:16:22;25.50;99.90
29721;DHT22;23665;51.044;3.748;2022-08-19T11:18:51;25.60;99.90
29721;DHT22;23665;51.044;3.748;2022-08-19T11:21:21;25.60;99.90
29721;DHT22;23665;51.044;3.748;2022-08-19T11:23:50;25.50;99.90
29721;DHT22;23665;51.044;3.748;2022-08-19T11:26:16;25.50;99.90
29721;DHT22;23665;51.044;3.748;2022-08-19T11:28:43;25.30;99.90
29721;DHT22;23665;51.044;3.748;2022-08-19T11:31:13;25.30;99.90
29721;DHT22;23665;51.044;3.748;2022-08-19T11:33:40;25.20;99.90
29721;DHT22;23665;51.044;3.748;2022-08-19T11:36:07;25.10;99.90
29721;DHT22;23665;51.044;3.748;2022-08-19T11:38:33;25.00;99.90
29721;DHT22;23665;51.044;3.748;2022-08-19T11:41:03;24.80;99.90
29721;DHT22;23665;51.044;3.748;2022-08-19T11:43:29;24.90;99.90
29721;DHT22;23665;51.044;3.748;2022-08-19T11:45:57;25.20;99.90
29721;DHT22;23665;51.044;3.748;2022-08-19T11:48:24;25.30;99.90
29721;DHT22;23665;51.044;3.748;2022-08-19T11:50:52;25.60;99.90
29721;DHT22;23665;51.044;3.748;2022-08-19T11:53:19;25.80;99.90
29721;DHT22;23665;51.044;3.748;2022-08-19T11:55:46;26.00;99.90
29721;DHT22;23665;51.044;3.748;2022-08-19T11:58:13;26.00;99.90
29721;DHT22;23665;51.044;3.748;2022-08-19T12:00:41;26.10;99.90
29721;DHT22;23665;51.044;3.748;2022-08-19T12:03:07;26.10;99.90
29721;DHT22;23665;51.044;3.748;2022-08-19T12:05:33;26.00;99.90
29721;DHT22;23665;51.044;3.748;2022-08-19T12:08:01;25.90;99.90
29721;DHT22;23665;51.044;3.748;2022-08-19T12:10:27;25.80;99.90
29721;DHT22;23665;51.044;3.748;2022-08-19T12:12:52;26.00;99.90
29721;DHT22;23665;51.044;3.748;2022-08-19T12:15:18;26.10;99.90
29721;DHT22;23665;51.044;3.748;2022-08-19T12:17:44;26.20;99.90
29721;DHT22;23665;51.044;3.748;2022-08-19T12:20:10;26.30;99.90
29721;DHT22;23665;51.044;3.748;2022-08-19T12:22:37;26.50;99.90
29721;DHT22;23665;51.044;3.748;2022-08-19T12:25:05;26.80;99.90
29721;DHT22;23665;51.044;3.748;2022-08-19T12:27:31;26.80;99.90
29721;DHT22;23665;51.044;3.748;2022-08-19T12:29:56;27.00;99.90
29721;DHT22;23665;51.044;3.748;2022-08-19T12:32:23;26.90;99.90
29721;DHT22;23665;51.044;3.748;2022-08-19T12:34:50;27.00;99.90
29721;DHT22;23665;51.044;3.748;2022-08-19T12:37:16;27.00;99.90
29721;DHT22;23665;51.044;3.748;2022-08-19T12:39:42;26.70;99.90
29721;DHT22;23665;51.044;3.748;2022-08-19T12:42:11;26.40;99.90
29721;DHT22;23665;51.044;3.748;2022-08-19T12:44:38;26.30;99.90
29721;DHT22;23665;51.044;3.748;2022-08-19T12:47:05;26.10;99.90
29721;DHT22;23665;51.044;3.748;2022-08-19T12:49:32;25.80;99.90
29721;DHT22;23665;51.044;3.748;2022-08-19T12:52:00;25.80;99.90
29721;DHT22;23665;51.044;3.748;2022-08-19T12:54:27;25.70;99.90
29721;DHT22;23665;51.044;3.748;2022-08-19T12:56:52;25.70;99.90
29721;DHT22;23665;51.044;3.748;2022-08-19T12:59:19;25.80;99.90
29721;DHT22;23665;51.044;3.748;2022-08-19T13:01:45;26.00;99.90
29721;DHT22;23665;51.044;3.748;2022-08-19T13:04:11;26.00;99.90
29721;DHT22;23665;51.044;3.748;2022-08-19T13:06:37;26.20;99.90
29721;DHT22;23665;51.044;3.748;2022-08-19T13:09:06;26.60;99.90
29721;DHT22;23665;51.044;3.748;2022-08-19T13:11:31;26.70;99.90
29721;DHT22;23665;51.044;3.748;2022-08-19T13:14:01;26.60;99.90
29721;DHT22;23665;51.044;3.748;2022-08-19T13:16:28;26.80;99.90
29721;DHT22;23665;51.044;3.748;2022-08-19T13:18:55;26.80;99.90
29721;DHT22;23665;51.044;3.748;2022-08-19T13:21:26;26.40;99.90
29721;DHT22;23665;51.044;3.748;2022-08-19T13:23:56;26.20;99.90
29721;DHT22;23665;51.044;3.748;2022-08-19T13:26:22;25.90;99.90
29721;DHT22;23665;51.044;3.748;2022-08-19T13:28:47;25.10;99.90
29721;DHT22;23665;51.044;3.748;2022-08-19T13:31:33;24.20;99.90
29721;DHT22;23665;51.044;3.748;2022-08-19T13:34:25;23.80;99.90
29721;DHT22;23665;51.044;3.748;2022-08-19T13:36:52;23.50;99.90
29721;DHT22;23665;51.044;3.748;2022-08-19T13:39:19;23.30;99.90
29721;DHT22;23665;51.044;3.748;2022-08-19T13:41:46;23.20;99.90
29721;DHT22;23665;51.044;3.748;2022-08-19T13:44:18;23.40;99.90
29721;DHT22;23665;51.044;3.748;2022-08-19T13:46:45;23.60;99.90
29721;DHT22;23665;51.044;3.748;2022-08-19T13:49:12;23.80;99.90
29721;DHT22;23665;51.044;3.748;2022-08-19T13:51:39;24.10;99.90
29721;DHT22;23665;51.044;3.748;2022-08-19T13:54:06;24.10;99.90
29721;DHT22;23665;51.044;3.748;2022-08-19T13:56:32;24.30;99.90
29721;DHT22;23665;51.044;3.748;2022-08-19T13:58:58;24.60;99.90
29721;DHT22;23665;51.044;3.748;2022-08-19T14:01:24;24.60;99.90
29721;DHT22;23665;51.044;3.748;2022-08-19T14:03:50;24.70;99.90
29721;DHT22;23665;51.044;3.748;2022-08-19T14:06:16;25.20;99.90
29721;DHT22;23665;51.044;3.748;2022-08-19T14:08:42;25.40;99.90
29721;DHT22;23665;51.044;3.748;2022-08-19T14:11:08;25.70;99.90
29721;DHT22;23665;51.044;3.748;2022-08-19T14:13:34;25.70;99.90
29721;DHT22;23665;51.044;3.748;2022-08-19T14:16:00;25.70;99.90
29721;DHT22;23665;51.044;3.748;2022-08-19T14:18:26;25.80;99.90
29721;DHT22;23665;51.044;3.748;2022-08-19T14:20:52;26.00;99.90
29721;DHT22;23665;51.044;3.748;2022-08-19T14:23:18;26.30;99.90
29721;DHT22;23665;51.044;3.748;2022-08-19T14:25:44;26.40;99.90
29721;DHT22;23665;51.044;3.748;2022-08-19T14:28:09;26.40;99.90
29721;DHT22;23665;51.044;3.748;2022-08-19T14:30:37;26.00;99.90
29721;DHT22;23665;51.044;3.748;2022-08-19T14:33:03;25.90;99.90
29721;DHT22;23665;51.044;3.748;2022-08-19T14:35:32;25.70;99.90
29721;DHT22;23665;51.044;3.748;2022-08-19T14:38:02;25.70;99.90
29721;DHT22;23665;51.044;3.748;2022-08-19T14:40:29;26.00;99.90
29721;DHT22;23665;51.044;3.748;2022-08-19T14:43:02;25.90;99.90
29721;DHT22;23665;51.044;3.748;2022-08-19T14:45:32;26.30;99.90
29721;DHT22;23665;51.044;3.748;2022-08-19T14:48:12;26.30;99.90
29721;DHT22;23665;51.044;3.748;2022-08-19T14:50:38;26.60;99.90
29721;DHT22;23665;51.044;3.748;2022-08-19T14:53:07;26.60;99.90
29721;DHT22;23665;51.044;3.748;2022-08-19T14:55:33;26.90;99.90
29721;DHT22;23665;51.044;3.748;2022-08-19T14:57:59;27.00;99.90
29721;DHT22;23665;51.044;3.748;2022-08-19T15:00:26;27.00;99.90
29721;DHT22;23665;51.044;3.748;2022-08-19T15:02:53;26.90;99.90
29721;DHT22;23665;51.044;3.748;2022-08-19T15:05:20;26.60;99.90
29721;DHT22;23665;51.044;3.748;2022-08-19T15:07:46;26.40;99.90
29721;DHT22;23665;51.044;3.748;2022-08-19T15:10:13;26.50;99.90
29721;DHT22;23665;51.044;3.748;2022-08-19T15:12:40;26.80;99.90
29721;DHT22;23665;51.044;3.748;2022-08-19T15:15:08;27.00;99.90
29721;DHT22;23665;51.044;3.748;2022-08-19T15:17:34;26.90;99.90
29721;DHT22;23665;51.044;3.748;2022-08-19T15:20:03;27.00;99.90
29721;DHT22;23665;51.044;3.748;2022-08-19T15:22:30;26.90;99.90
29721;DHT22;23665;51.044;3.748;2022-08-19T15:24:55;27.00;99.90
29721;DHT22;23665;51.044;3.748;2022-08-19T15:27:21;26.90;99.90
29721;DHT22;23665;51.044;3.748;2022-08-19T15:29:47;27.00;99.90
29721;DHT22;23665;51.044;3.748;2022-08-19T15:32:13;27.10;99.90
29721;DHT22;23665;51.044;3.748;2022-08-19T15:34:38;27.30;99.90
29721;DHT22;23665;51.044;3.748;2022-08-19T15:37:04;27.10;99.90
29721;DHT22;23665;51.044;3.748;2022-08-19T15:39:31;27.00;99.90
29721;DHT22;23665;51.044;3.748;2022-08-19T15:41:56;27.00;99.90